Time;durP1;ratioP1;P1;durP2;ratioP2;P2;SDS_P1;SDS_P2;PMS_P1;PMS_P2;Temp;Humidity;BMP_temperature;BMP_pressure;BME280_temperature;BME280_humidity;BME280_pressure;Samples;Min_cycle;Max_cycle;Signal;HPM_P1;HPM_P2
2022/07/10 00:00:01;;;;;;;1.98;1.77;;;26.80;37.70;;;;;;5122683;27;46751;-69
2022/07/10 00:02:30;;;;;;;2.05;1.60;;;26.80;37.80;;;;;;5122642;27;45319;-69
2022/07/10 00:04:56;;;;;;;1.75;1.48;;;26.80;37.80;;;;;;5122902;27;45314;-70
2022/07/10 00:07:23;;;;;;;1.73;1.60;;;26.80;37.80;;;;;;5123132;27;45154;-70
2022/07/10 00:09:50;;;;;;;1.48;1.38;;;26.70;37.80;;;;;;5122082;27;46817;-70
2022/07/10 00:12:17;;;;;;;2.15;1.50;;;26.70;38.60;;;;;;5122635;27;45126;-70
2022/07/10 00:14:44;;;;;;;1.75;1.50;;;26.70;37.90;;;;;;5122743;27;45307;-70
2022/07/10 00:17:10;;;;;;;1.90;1.60;;;26.70;38.00;;;;;;5122879;27;45276;-70
2022/07/10 00:19:39;;;;;;;2.53;1.40;;;26.60;38.00;;;;;;5122352;27;45379;-70
2022/07/10 00:22:05;;;;;;;1.52;1.27;;;26.60;38.00;;;;;;5109574;27;45175;-69
2022/07/10 00:24:32;;;;;;;3.17;1.50;;;26.60;38.10;;;;;;5108859;27;45129;-70
2022/07/10 00:26:59;;;;;;;1.83;1.42;;;26.60;38.10;;;;;;5108776;27;45241;-70
2022/07/10 00:29:26;;;;;;;1.73;1.60;;;26.60;38.10;;;;;;5108277;27;45244;-70
2022/07/10 00:31:53;;;;;;;2.33;1.65;;;26.50;38.10;;;;;;5108415;27;45276;-70
2022/07/10 00:34:20;;;;;;;1.67;1.50;;;26.50;38.10;;;;;;5108432;27;45230;-70
2022/07/10 00:36:48;;;;;;;2.13;1.30;;;26.50;38.30;;;;;;5108979;27;45174;-70
2022/07/10 00:39:15;;;;;;;1.42;1.33;;;26.50;38.20;;;;;;5108374;27;46407;-69
2022/07/10 00:41:42;;;;;;;1.50;1.35;;;26.40;38.20;;;;;;5108325;27;45458;-69
2022/07/10 00:44:09;;;;;;;1.85;1.48;;;26.40;38.30;;;;;;5108439;27;45245;-69
2022/07/10 00:46:36;;;;;;;1.30;1.30;;;26.40;38.40;;;;;;5108578;27;45247;-69
2022/07/10 00:49:03;;;;;;;3.15;1.42;;;26.40;38.40;;;;;;5109012;27;45274;-69
2022/07/10 00:51:30;;;;;;;1.52;1.42;;;26.40;38.40;;;;;;5107944;27;45379;-69
2022/07/10 00:53:58;;;;;;;1.40;1.30;;;26.40;38.40;;;;;;5108283;27;45267;-69
2022/07/10 00:56:26;;;;;;;2.65;1.50;;;26.40;38.30;;;;;;5108389;27;45331;-70
2022/07/10 00:58:53;;;;;;;1.33;1.23;;;26.30;38.40;;;;;;5107963;27;45175;-69
2022/07/10 01:01:20;;;;;;;1.73;1.38;;;26.30;38.30;;;;;;5108203;27;45277;-69
2022/07/10 01:03:47;;;;;;;1.55;1.45;;;26.30;38.30;;;;;;5108088;27;45257;-69
2022/07/10 01:06:14;;;;;;;2.25;1.52;;;26.30;38.40;;;;;;5108267;27;45396;-69
2022/07/10 01:08:41;;;;;;;1.80;1.70;;;26.30;38.60;;;;;;5107639;27;45227;-69
2022/07/10 01:11:10;;;;;;;3.38;1.90;;;26.20;38.40;;;;;;5107781;27;45203;-69
2022/07/10 01:13:37;;;;;;;1.88;1.42;;;26.20;38.40;;;;;;5107854;27;45299;-69
2022/07/10 01:16:04;;;;;;;1.55;1.45;;;26.20;39.00;;;;;;5108062;27;45412;-69
2022/07/10 01:18:31;;;;;;;1.63;1.30;;;26.20;38.50;;;;;;5107618;27;47372;-69
2022/07/10 01:20:59;;;;;;;2.30;1.58;;;26.20;38.60;;;;;;5107656;27;45223;-70
2022/07/10 01:23:26;;;;;;;1.92;1.60;;;26.10;38.60;;;;;;5107774;27;45272;-69
2022/07/10 01:25:53;;;;;;;2.58;1.35;;;26.10;38.60;;;;;;5107923;27;45299;-70
2022/07/10 01:28:20;;;;;;;2.17;1.55;;;26.10;38.50;;;;;;5107416;27;46613;-70
2022/07/10 01:30:47;;;;;;;1.60;1.50;;;26.10;38.70;;;;;;5107436;27;45195;-69
2022/07/10 01:33:14;;;;;;;1.40;1.30;;;26.10;38.60;;;;;;5106573;27;45245;-69
2022/07/10 01:35:41;;;;;;;2.00;1.63;;;26.00;38.50;;;;;;5107786;27;45294;-69
2022/07/10 01:38:09;;;;;;;2.47;1.58;;;26.00;38.60;;;;;;5107490;27;46457;-69
2022/07/10 01:40:36;;;;;;;2.13;1.70;;;26.00;38.70;;;;;;5107329;27;45182;-70
2022/07/10 01:43:03;;;;;;;1.48;1.38;;;26.00;38.80;;;;;;5107451;27;45194;-69
2022/07/10 01:45:29;;;;;;;1.50;1.40;;;26.00;38.70;;;;;;5107525;27;45412;-70
2022/07/10 01:47:56;;;;;;;1.50;1.40;;;26.00;38.80;;;;;;5107049;27;45423;-70
2022/07/10 01:50:23;;;;;;;1.40;1.30;;;25.90;38.60;;;;;;5107139;27;45289;-69
2022/07/10 01:52:50;;;;;;;1.48;1.30;;;25.90;38.80;;;;;;5107211;27;45264;-69
2022/07/10 01:55:18;;;;;;;1.50;1.35;;;25.90;38.70;;;;;;5107398;27;45476;-69
2022/07/10 01:57:45;;;;;;;1.42;1.33;;;25.90;38.80;;;;;;5106989;27;46364;-69
2022/07/10 02:00:13;;;;;;;1.50;1.40;;;25.80;38.70;;;;;;5104326;27;45564;-70
2022/07/10 02:02:40;;;;;;;1.63;1.30;;;25.80;38.80;;;;;;5107150;27;45210;-70
2022/07/10 02:05:06;;;;;;;1.40;1.30;;;25.80;38.80;;;;;;5107238;27;45352;-70
2022/07/10 02:07:33;;;;;;;1.33;1.23;;;25.80;38.90;;;;;;5106826;27;45273;-70
2022/07/10 02:09:59;;;;;;;1.88;1.38;;;25.80;39.60;;;;;;5106625;27;45352;-70
2022/07/10 02:12:28;;;;;;;1.73;1.30;;;25.70;38.90;;;;;;5106982;27;45264;-69
2022/07/10 02:14:59;;;;;;;2.15;1.50;;;25.70;38.90;;;;;;5107056;27;45403;-70
2022/07/10 02:17:26;;;;;;;1.50;1.40;;;25.70;39.00;;;;;;5106663;27;46685;-69
2022/07/10 02:19:52;;;;;;;1.40;1.30;;;25.70;39.00;;;;;;5106816;27;45265;-70
2022/07/10 02:22:19;;;;;;;1.60;1.50;;;25.60;39.20;;;;;;5106892;27;45248;-70
2022/07/10 02:24:46;;;;;;;1.60;1.48;;;25.60;38.90;;;;;;5104431;27;45283;-70
2022/07/10 02:27:13;;;;;;;1.85;1.30;;;25.60;39.10;;;;;;5106551;27;45404;-70
2022/07/10 02:29:41;;;;;;;1.50;1.40;;;25.60;38.90;;;;;;5106400;27;45358;-70
2022/07/10 02:32:08;;;;;;;1.88;1.50;;;25.60;39.00;;;;;;5106739;27;45252;-70
2022/07/10 02:34:35;;;;;;;1.55;1.45;;;25.60;39.00;;;;;;5106741;27;45419;-70
2022/07/10 02:37:02;;;;;;;1.60;1.38;;;25.50;39.00;;;;;;5106411;27;46357;-70
2022/07/10 02:39:29;;;;;;;1.48;1.38;;;25.50;38.90;;;;;;5106463;27;45239;-69
2022/07/10 02:41:56;;;;;;;1.48;1.38;;;25.50;39.10;;;;;;5106447;27;45379;-70
2022/07/10 02:44:22;;;;;;;1.40;1.30;;;25.50;39.00;;;;;;5106472;27;45402;-70
2022/07/10 02:46:51;;;;;;;1.40;1.30;;;25.50;39.10;;;;;;5106359;27;46717;-70
2022/07/10 02:49:17;;;;;;;1.42;1.33;;;25.50;39.00;;;;;;5106418;27;45141;-70
2022/07/10 02:51:47;;;;;;;1.52;1.42;;;25.50;39.10;;;;;;5106532;27;45208;-70
2022/07/10 02:54:14;;;;;;;1.55;1.45;;;25.40;39.00;;;;;;5106818;27;45269;-69
2022/07/10 02:56:41;;;;;;;1.40;1.30;;;25.40;39.00;;;;;;5106189;27;45464;-70
2022/07/10 02:59:08;;;;;;;1.60;1.45;;;25.40;39.10;;;;;;5106322;27;45274;-70
2022/07/10 03:01:34;;;;;;;1.30;1.30;;;25.40;39.10;;;;;;5106380;27;45444;-70
2022/07/10 03:04:03;;;;;;;1.35;1.25;;;25.30;39.60;;;;;;5103719;27;45278;-70
2022/07/10 03:06:29;;;;;;;1.50;1.40;;;25.30;39.20;;;;;;5106018;27;46409;-70
2022/07/10 03:08:56;;;;;;;1.40;1.30;;;25.30;39.20;;;;;;5105766;27;45269;-71
2022/07/10 03:11:23;;;;;;;1.60;1.50;;;25.30;39.20;;;;;;5106053;27;45205;-70
2022/07/10 03:13:50;;;;;;;1.15;1.15;;;25.30;39.30;;;;;;5106240;27;45306;-70
2022/07/10 03:16:17;;;;;;;1.50;1.40;;;25.30;39.30;;;;;;5105864;27;46402;-70
2022/07/10 03:18:45;;;;;;;1.50;1.40;;;25.30;39.30;;;;;;5105895;27;45338;-69
2022/07/10 03:21:13;;;;;;;1.60;1.50;;;25.20;39.20;;;;;;5105993;27;45228;-70
2022/07/10 03:23:43;;;;;;;1.25;1.23;;;25.20;39.20;;;;;;5106296;27;45391;-70
2022/07/10 03:26:10;;;;;;;1.25;1.20;;;25.20;39.30;;;;;;5105716;27;46369;-70
2022/07/10 03:28:36;;;;;;;1.52;1.42;;;25.20;39.30;;;;;;5105630;27;45193;-70
2022/07/10 03:31:03;;;;;;;1.50;1.40;;;25.20;39.40;;;;;;5105771;27;45253;-70
2022/07/10 03:33:30;;;;;;;1.20;1.20;;;25.10;39.30;;;;;;5105921;27;45407;-70
2022/07/10 03:35:57;;;;;;;1.38;1.30;;;25.10;39.20;;;;;;5105557;27;45478;-70
2022/07/10 03:38:25;;;;;;;1.25;1.20;;;25.10;39.30;;;;;;5105649;27;45269;-70
2022/07/10 03:40:52;;;;;;;1.50;1.40;;;25.10;40.00;;;;;;5105800;27;45255;-70
2022/07/10 03:43:18;;;;;;;1.75;1.65;;;25.00;39.20;;;;;;5105804;27;45162;-70
2022/07/10 03:45:45;;;;;;;1.60;1.50;;;25.00;39.20;;;;;;5105575;27;47394;-70
2022/07/10 03:48:12;;;;;;;1.55;1.45;;;25.00;39.30;;;;;;5105506;27;45273;-70
2022/07/10 03:50:39;;;;;;;1.85;1.40;;;25.00;39.30;;;;;;5105841;27;45167;-69
2022/07/10 03:53:06;;;;;;;2.33;1.60;;;25.00;39.40;;;;;;5105800;27;45188;-70
2022/07/10 03:55:34;;;;;;;1.63;1.23;;;25.00;39.40;;;;;;5105661;27;45289;-70
2022/07/10 03:58:02;;;;;;;1.27;1.17;;;25.00;39.30;;;;;;5108963;27;45256;-70
2022/07/10 04:00:31;;;;;;;1.40;1.30;;;24.90;39.40;;;;;;5109171;27;45246;-71
2022/07/10 04:02:58;;;;;;;1.45;1.33;;;24.90;39.50;;;;;;5109117;27;45249;-70
2022/07/10 04:05:25;;;;;;;1.50;1.40;;;24.90;39.40;;;;;;5108793;27;46770;-69
2022/07/10 04:07:52;;;;;;;1.55;1.45;;;24.90;40.00;;;;;;5108787;27;45376;-69
2022/07/10 04:10:19;;;;;;;1.45;1.35;;;24.90;39.60;;;;;;5108633;27;45366;-70
2022/07/10 04:12:48;;;;;;;1.95;1.50;;;24.90;39.50;;;;;;5109003;27;45383;-70
2022/07/10 04:15:14;;;;;;;1.25;1.15;;;24.90;39.40;;;;;;5108766;27;47301;-70
2022/07/10 04:17:41;;;;;;;1.67;1.45;;;24.90;39.60;;;;;;5108649;27;45265;-70
2022/07/10 04:20:09;;;;;;;1.50;1.40;;;24.80;39.50;;;;;;5108738;27;45312;-70
2022/07/10 04:22:36;;;;;;;1.50;1.40;;;24.80;39.60;;;;;;5108954;27;45439;-70
2022/07/10 04:25:03;;;;;;;1.52;1.42;;;24.80;39.50;;;;;;5108498;27;46257;-70
2022/07/10 04:27:29;;;;;;;1.58;1.35;;;24.80;39.50;;;;;;5108656;27;45196;-70
2022/07/10 04:29:58;;;;;;;1.60;1.50;;;24.80;39.60;;;;;;5108578;27;45319;-70
2022/07/10 04:32:24;;;;;;;1.40;1.30;;;24.70;39.50;;;;;;5108695;27;45261;-70
2022/07/10 04:34:51;;;;;;;1.90;1.30;;;24.70;39.70;;;;;;5108355;27;45225;-69
2022/07/10 04:37:18;;;;;;;1.52;1.42;;;24.70;39.70;;;;;;5108310;27;45284;-70
2022/07/10 04:39:45;;;;;;;1.60;1.50;;;24.70;39.70;;;;;;5108497;27;45206;-70
2022/07/10 04:42:12;;;;;;;1.60;1.50;;;24.70;39.90;;;;;;5108666;27;45257;-70
2022/07/10 04:44:39;;;;;;;1.35;1.25;;;24.70;39.90;;;;;;5108164;27;45300;-69
2022/07/10 04:47:07;;;;;;;1.60;1.50;;;24.70;39.90;;;;;;5108117;27;45315;-69
2022/07/10 04:49:34;;;;;;;1.40;1.30;;;24.60;40.00;;;;;;5108303;27;45238;-69
2022/07/10 04:52:01;;;;;;;1.55;1.45;;;24.60;40.00;;;;;;5108380;27;45391;-69
2022/07/10 04:54:27;;;;;;;1.40;1.30;;;24.60;40.00;;;;;;5107968;27;46277;-70
2022/07/10 04:56:54;;;;;;;1.50;1.40;;;24.60;40.00;;;;;;5105443;27;45342;-70
2022/07/10 04:59:21;;;;;;;1.13;1.13;;;24.60;40.00;;;;;;5108265;27;45178;-70
2022/07/10 05:01:48;;;;;;;1.40;1.30;;;24.60;39.80;;;;;;5108268;27;45400;-69
2022/07/10 05:04:16;;;;;;;1.40;1.30;;;24.60;40.00;;;;;;5107835;27;45244;-70
2022/07/10 05:06:43;;;;;;;1.60;1.50;;;24.60;40.40;;;;;;5107767;27;45240;-69
2022/07/10 05:09:10;;;;;;;1.55;1.45;;;24.60;40.40;;;;;;5107865;27;45326;-70
2022/07/10 05:11:36;;;;;;;1.45;1.35;;;24.60;40.40;;;;;;5108172;27;45407;-69
2022/07/10 05:14:03;;;;;;;1.50;1.40;;;24.60;40.40;;;;;;5107914;27;45245;-70
2022/07/10 05:16:30;;;;;;;2.15;1.48;;;24.60;40.20;;;;;;5107796;27;45135;-70
2022/07/10 05:18:57;;;;;;;1.60;1.50;;;24.70;40.40;;;;;;5107941;27;45363;-70
2022/07/10 05:21:26;;;;;;;1.30;1.20;;;24.60;40.40;;;;;;5107876;27;45283;-70
2022/07/10 05:23:53;;;;;;;1.63;1.45;;;24.70;40.40;;;;;;5107505;27;46491;-70
2022/07/10 05:26:19;;;;;;;1.50;1.40;;;24.70;40.40;;;;;;5107663;27;45215;-70
2022/07/10 05:28:46;;;;;;;1.60;1.42;;;24.70;40.50;;;;;;5107690;27;45246;-70
2022/07/10 05:31:13;;;;;;;1.33;1.30;;;24.70;40.60;;;;;;5107726;27;45395;-70
2022/07/10 05:33:40;;;;;;;1.35;1.35;;;24.70;40.60;;;;;;5107453;27;46676;-70
2022/07/10 05:36:08;;;;;;;1.42;1.33;;;24.70;40.60;;;;;;5107458;27;45139;-70
2022/07/10 05:38:36;;;;;;;1.58;1.48;;;24.70;40.60;;;;;;5107572;27;45190;-70
2022/07/10 05:41:03;;;;;;;1.25;1.25;;;24.70;40.60;;;;;;5107771;27;45395;-70
2022/07/10 05:43:30;;;;;;;1.50;1.40;;;24.70;40.60;;;;;;5107628;27;46205;-70
2022/07/10 05:45:56;;;;;;;1.35;1.30;;;24.70;40.70;;;;;;5107251;27;45307;-70
2022/07/10 05:48:23;;;;;;;1.92;1.35;;;24.70;40.70;;;;;;5107424;27;45247;-70
2022/07/10 05:50:50;;;;;;;1.40;1.30;;;24.70;40.80;;;;;;5107466;27;45208;-70
2022/07/10 05:53:20;;;;;;;1.60;1.48;;;24.70;40.70;;;;;;5107037;27;46497;-70
2022/07/10 05:55:49;;;;;;;1.42;1.30;;;24.70;40.70;;;;;;5107146;27;45251;-70
2022/07/10 05:58:15;;;;;;;1.55;1.40;;;24.70;40.80;;;;;;5107241;27;45226;-70
2022/07/10 06:00:43;;;;;;;1.38;1.30;;;24.70;40.80;;;;;;5107303;27;45288;-69
2022/07/10 06:03:10;;;;;;;1.60;1.25;;;24.70;40.80;;;;;;5106903;27;45295;-70
2022/07/10 06:05:37;;;;;;;1.20;1.20;;;24.70;40.80;;;;;;5107070;27;45211;-70
2022/07/10 06:08:04;;;;;;;1.40;1.30;;;24.80;40.90;;;;;;5106962;27;45350;-70
2022/07/10 06:10:31;;;;;;;1.38;1.30;;;24.70;40.80;;;;;;5106815;27;45208;-70
2022/07/10 06:12:59;;;;;;;1.65;1.55;;;24.80;40.90;;;;;;5106954;27;45368;-69
2022/07/10 06:15:26;;;;;;;1.33;1.23;;;24.80;40.90;;;;;;5106795;27;45378;-70
2022/07/10 06:17:53;;;;;;;1.33;1.23;;;24.80;40.90;;;;;;5106903;27;45230;-69
2022/07/10 06:20:19;;;;;;;1.50;1.40;;;24.80;41.00;;;;;;5106395;27;45395;-70
2022/07/10 06:22:46;;;;;;;1.42;1.30;;;24.80;40.90;;;;;;5106527;27;46899;-69
2022/07/10 06:25:13;;;;;;;1.55;1.45;;;24.80;40.90;;;;;;5106657;27;45286;-69
2022/07/10 06:27:40;;;;;;;1.67;1.45;;;24.80;40.90;;;;;;5106841;27;45269;-69
2022/07/10 06:30:09;;;;;;;1.45;1.35;;;24.80;41.00;;;;;;5106770;27;45252;-69
2022/07/10 06:32:36;;;;;;;1.30;1.20;;;24.80;41.00;;;;;;5106444;27;47347;-70
2022/07/10 06:35:03;;;;;;;1.40;1.30;;;24.80;41.10;;;;;;5106525;27;45367;-69
2022/07/10 06:37:31;;;;;;;1.60;1.50;;;24.80;41.20;;;;;;5106583;27;45303;-69
2022/07/10 06:39:58;;;;;;;1.38;1.23;;;24.80;41.10;;;;;;5106671;27;45199;-70
2022/07/10 06:42:24;;;;;;;1.58;1.45;;;24.80;41.20;;;;;;5106174;27;45787;-70
2022/07/10 06:44:51;;;;;;;1.45;1.35;;;24.80;41.80;;;;;;5106441;27;45192;-70
2022/07/10 06:50:04;;;;;;;2.15;1.35;;;24.80;41.40;;;;;;5106756;27;45286;-70
2022/07/10 06:52:32;;;;;;;1.20;1.20;;;24.90;41.50;;;;;;5105999;27;46425;-70
2022/07/10 06:54:59;;;;;;;1.30;1.20;;;24.90;41.50;;;;;;5106108;27;45173;-70
2022/07/10 06:57:26;;;;;;;1.70;1.27;;;24.90;41.50;;;;;;5106423;27;45213;-70
2022/07/10 06:59:53;;;;;;;1.15;1.15;;;24.90;41.50;;;;;;5106401;27;45283;-70
2022/07/10 07:02:21;;;;;;;1.48;1.38;;;24.90;41.50;;;;;;5105929;27;46382;-70
2022/07/10 07:04:48;;;;;;;1.67;1.52;;;24.90;41.50;;;;;;5106216;27;45222;-70
2022/07/10 07:07:14;;;;;;;2.15;1.20;;;24.90;42.10;;;;;;5106042;27;45202;-69
2022/07/10 07:09:42;;;;;;;2.72;1.30;;;24.90;41.50;;;;;;5106012;27;45375;-69
2022/07/10 07:12:09;;;;;;;1.50;1.40;;;24.90;41.60;;;;;;5105635;27;46580;-70
2022/07/10 07:14:36;;;;;;;1.20;1.10;;;24.90;41.60;;;;;;5105883;27;45410;-70
2022/07/10 07:17:06;;;;;;;1.30;1.20;;;24.90;41.50;;;;;;5105980;27;45317;-70
2022/07/10 07:23:09;;;;;;;1.40;1.30;;;24.90;41.50;;;;;;5106548;27;45455;-70
2022/07/10 07:25:08;;;;;;;1.92;1.20;;;24.90;41.60;;;;;;5105810;27;45304;-70
2022/07/10 07:27:35;;;;;;;1.75;1.08;;;24.90;41.50;;;;;;5105920;27;45248;-69
2022/07/10 07:30:06;;;;;;;1.20;1.10;;;24.90;41.60;;;;;;5106083;27;45119;-69
2022/07/10 07:32:33;;;;;;;1.58;1.48;;;25.00;41.60;;;;;;5108798;27;47558;-69
2022/07/10 07:35:01;;;;;;;1.83;1.13;;;24.90;41.50;;;;;;5109374;27;45225;-68
2022/07/10 07:37:41;;;;;;;0.98;0.98;;;24.90;41.60;;;;;;5109471;27;45127;-68
2022/07/10 07:40:09;;;;;;;1.20;1.10;;;24.90;41.60;;;;;;5109576;27;45311;-68
2022/07/10 07:42:36;;;;;;;1.20;1.10;;;25.00;41.60;;;;;;5109148;27;46340;-69
2022/07/10 07:45:03;;;;;;;1.55;1.45;;;24.90;41.60;;;;;;5109264;27;45216;-69
2022/07/10 07:47:30;;;;;;;1.30;1.20;;;24.90;41.60;;;;;;5109239;27;45279;-69
2022/07/10 07:49:57;;;;;;;1.20;1.10;;;25.00;41.60;;;;;;5109455;27;45320;-69
2022/07/10 07:52:25;;;;;;;1.58;1.10;;;25.00;41.60;;;;;;5108885;27;46396;-69
2022/07/10 07:54:52;;;;;;;1.05;1.05;;;25.00;41.60;;;;;;5109070;27;45192;-68
2022/07/10 07:57:19;;;;;;;1.35;1.00;;;25.00;41.60;;;;;;5109139;27;45264;-69
2022/07/10 07:59:46;;;;;;;1.00;1.00;;;25.00;41.60;;;;;;5109166;27;45322;-69
2022/07/10 08:02:13;;;;;;;1.35;1.23;;;25.00;41.60;;;;;;5108857;27;46604;-69
2022/07/10 08:04:40;;;;;;;3.10;1.33;;;25.00;41.50;;;;;;5108808;27;45232;-69
2022/07/10 08:07:06;;;;;;;1.75;1.10;;;25.00;41.60;;;;;;5108930;27;45188;-69
2022/07/10 08:09:35;;;;;;;1.95;1.20;;;25.00;41.50;;;;;;5108774;27;45467;-69
2022/07/10 08:12:02;;;;;;;1.17;1.17;;;25.00;41.50;;;;;;5108636;27;46908;-69
2022/07/10 08:14:29;;;;;;;1.40;1.05;;;25.10;41.50;;;;;;5108731;27;45362;-69
2022/07/10 08:16:55;;;;;;;1.30;1.10;;;25.10;41.50;;;;;;5108848;27;45272;-69
2022/07/10 08:19:22;;;;;;;1.45;1.35;;;25.10;41.50;;;;;;5108973;27;45176;-69
2022/07/10 08:21:49;;;;;;;1.50;1.33;;;25.10;41.40;;;;;;5108468;27;46412;-69
2022/07/10 08:24:16;;;;;;;1.90;1.40;;;25.10;41.40;;;;;;5108637;27;45474;-69
2022/07/10 08:26:44;;;;;;;1.20;1.10;;;25.20;41.50;;;;;;5108671;27;45303;-69
2022/07/10 08:29:11;;;;;;;1.30;1.20;;;25.20;41.40;;;;;;5108821;27;45122;-69
2022/07/10 08:31:39;;;;;;;1.10;1.10;;;25.20;41.40;;;;;;5108395;27;45223;-69
2022/07/10 08:34:06;;;;;;;1.25;1.17;;;25.20;41.40;;;;;;5108419;27;45312;-69
2022/07/10 08:36:33;;;;;;;1.63;1.38;;;25.20;41.40;;;;;;5108588;27;45263;-70
2022/07/10 08:38:59;;;;;;;1.15;1.15;;;25.30;41.40;;;;;;5108589;27;45223;-69
2022/07/10 08:41:27;;;;;;;1.00;0.90;;;25.30;41.30;;;;;;5107693;27;46419;-69
2022/07/10 08:43:55;;;;;;;1.63;1.23;;;25.30;41.20;;;;;;5108255;27;45153;-70
2022/07/10 08:46:22;;;;;;;1.17;1.08;;;25.30;41.20;;;;;;5108498;27;45246;-70
2022/07/10 08:48:49;;;;;;;1.42;1.30;;;25.30;41.10;;;;;;5108653;27;45264;-70
2022/07/10 08:51:20;;;;;;;1.20;1.20;;;25.40;41.20;;;;;;5108144;27;46402;-70
2022/07/10 08:53:47;;;;;;;1.30;1.20;;;25.40;41.10;;;;;;5108149;27;45352;-70
2022/07/10 08:56:13;;;;;;;1.50;1.40;;;25.40;41.20;;;;;;5105684;27;45303;-70
2022/07/10 08:58:40;;;;;;;1.23;1.08;;;25.40;41.20;;;;;;5108298;27;45246;-70
2022/07/10 09:01:09;;;;;;;1.17;1.10;;;25.50;41.30;;;;;;5107875;27;46399;-72
2022/07/10 09:03:37;;;;;;;1.23;1.10;;;25.50;41.20;;;;;;5108196;27;45257;-73
2022/07/10 09:06:05;;;;;;;1.58;1.15;;;25.50;41.20;;;;;;5108991;27;45382;-70
2022/07/10 09:08:33;;;;;;;1.80;1.20;;;25.50;41.30;;;;;;5108240;27;45118;-70
2022/07/10 09:11:15;;;;;;;1.20;1.10;;;25.50;41.30;;;;;;5107782;27;45321;-69
2022/07/10 09:13:50;;;;;;;1.30;1.20;;;25.50;41.30;;;;;;5107766;27;45276;-70
2022/07/10 09:16:23;;;;;;;1.10;1.10;;;25.50;41.80;;;;;;5107940;27;45203;-70
2022/07/10 09:18:50;;;;;;;2.55;1.20;;;25.60;41.20;;;;;;5108009;27;45250;-69
2022/07/10 09:21:17;;;;;;;1.10;1.10;;;25.60;41.20;;;;;;5107712;27;46867;-71
2022/07/10 09:23:44;;;;;;;1.38;1.17;;;25.60;41.10;;;;;;5107581;27;45138;-70
2022/07/10 09:26:11;;;;;;;1.50;1.00;;;25.60;41.10;;;;;;5107806;27;45325;-70
2022/07/10 09:28:38;;;;;;;1.27;1.17;;;25.60;41.20;;;;;;5107745;27;45197;-70
2022/07/10 09:31:05;;;;;;;1.00;1.00;;;25.70;41.10;;;;;;5107457;27;46247;-69
2022/07/10 09:33:35;;;;;;;1.40;1.30;;;25.70;41.10;;;;;;5107401;27;45207;-70
2022/07/10 09:36:06;;;;;;;1.20;1.20;;;25.70;41.20;;;;;;5107697;27;45476;-70
2022/07/10 09:38:54;;;;;;;1.80;1.10;;;25.70;41.20;;;;;;5107801;27;45223;-70
2022/07/10 09:41:23;;;;;;;2.90;1.17;;;25.70;41.20;;;;;;5107266;27;46720;-70
2022/07/10 09:43:50;;;;;;;1.63;1.02;;;25.70;41.30;;;;;;5107317;27;45180;-70
2022/07/10 09:46:18;;;;;;;3.22;1.25;;;25.80;41.30;;;;;;5097603;27;45320;-71
2022/07/10 09:48:46;;;;;;;1.02;1.02;;;25.80;41.30;;;;;;5090484;27;45426;-70
2022/07/10 09:51:13;;;;;;;1.63;1.40;;;25.80;41.40;;;;;;5105662;27;46426;-70
2022/07/10 09:53:41;;;;;;;2.22;1.58;;;25.80;42.10;;;;;;5105198;27;45366;-70
2022/07/10 09:56:08;;;;;;;3.10;1.48;;;25.50;42.40;;;;;;5106187;27;45456;-70
2022/07/10 09:58:36;;;;;;;3.65;1.70;;;25.50;42.70;;;;;;5091104;27;45392;-70
2022/07/10 10:01:03;;;;;;;4.03;1.83;;;25.40;42.90;;;;;;5088895;27;46909;-71
2022/07/10 10:03:33;;;;;;;5.70;1.60;;;25.30;43.10;;;;;;5089600;27;45228;-68
2022/07/10 10:06:03;;;;;;;3.53;1.45;;;25.20;43.30;;;;;;5095093;27;45475;-71
2022/07/10 10:08:31;;;;;;;2.55;1.80;;;25.10;43.40;;;;;;5094277;27;45407;-68
2022/07/10 10:10:58;;;;;;;3.45;1.90;;;25.10;43.60;;;;;;5094576;27;46405;-68
2022/07/10 10:13:27;;;;;;;3.80;2.67;;;25.10;43.70;;;;;;5102141;27;45293;-69
2022/07/10 10:15:54;;;;;;;3.03;1.73;;;25.10;43.90;;;;;;5105797;27;45607;-69
2022/07/10 10:18:21;;;;;;;4.65;3.75;;;25.10;43.90;;;;;;5106406;27;45230;-69
2022/07/10 10:20:47;;;;;;;10.60;7.95;;;25.10;44.10;;;;;;5095579;27;45384;-70
2022/07/10 10:23:20;;;;;;;3.25;2.40;;;25.10;44.00;;;;;;5085317;28;45489;-69
2022/07/10 10:25:47;;;;;;;2.90;1.77;;;25.10;43.60;;;;;;5086014;28;45338;-69
2022/07/10 10:28:14;;;;;;;1.88;1.70;;;25.10;43.50;;;;;;5085021;27;45189;-69
2022/07/10 10:30:42;;;;;;;5.07;1.70;;;25.10;43.60;;;;;;5089831;27;45466;-70
2022/07/10 10:33:42;;;;;;;2.40;1.70;;;25.10;43.50;;;;;;5105412;27;45291;-72
2022/07/10 10:36:09;;;;;;;5.03;1.60;;;25.10;43.50;;;;;;5095042;27;45355;-71
2022/07/10 10:39:12;;;;;;;3.17;1.50;;;25.10;43.30;;;;;;5085544;28;45388;-72
2022/07/10 10:41:40;;;;;;;3.35;1.55;;;25.10;43.40;;;;;;5094543;27;46344;-72
2022/07/10 10:44:23;;;;;;;2.88;1.70;;;25.10;43.30;;;;;;5085643;27;45454;-72
2022/07/10 10:46:56;;;;;;;2.47;1.75;;;25.10;43.00;;;;;;5085676;27;45422;-72
2022/07/10 10:49:24;;;;;;;3.03;1.60;;;25.10;43.00;;;;;;5085761;28;45540;-72
2022/07/10 10:51:58;;;;;;;3.47;1.90;;;25.10;43.00;;;;;;5098312;27;45458;-72
2022/07/10 10:54:26;;;;;;;2.33;1.70;;;25.10;42.90;;;;;;5085993;28;45254;-73
2022/07/10 10:57:12;;;;;;;1.92;1.35;;;25.10;42.70;;;;;;5090291;27;45315;-73
2022/07/10 10:59:47;;;;;;;2.53;1.65;;;25.10;42.70;;;;;;5086195;28;45237;-72
2022/07/10 11:02:25;;;;;;;2.55;1.73;;;25.20;42.70;;;;;;5104902;27;47324;-73
2022/07/10 11:04:52;;;;;;;3.30;1.60;;;25.20;42.80;;;;;;5106717;27;45177;-72
2022/07/10 11:07:52;;;;;;;3.85;1.52;;;25.20;42.60;;;;;;5106784;27;45162;-72
2022/07/10 11:10:30;;;;;;;5.50;1.40;;;25.30;42.50;;;;;;5106443;27;45400;-72
2022/07/10 11:12:59;;;;;;;4.15;1.80;;;25.30;42.40;;;;;;5106377;27;46392;-72
2022/07/10 11:15:26;;;;;;;2.22;1.40;;;25.30;42.30;;;;;;5108161;27;45335;-72
2022/07/10 11:17:53;;;;;;;2.35;1.48;;;25.40;41.90;;;;;;5107475;27;45327;-72
2022/07/10 11:20:20;;;;;;;2.85;1.40;;;25.40;41.50;;;;;;5107363;27;45512;-72
2022/07/10 11:22:50;;;;;;;2.40;1.60;;;25.40;41.50;;;;;;5107143;27;45242;-71
2022/07/10 11:25:28;;;;;;;2.78;1.42;;;25.40;41.20;;;;;;5107746;27;45346;-72
2022/07/10 11:28:04;;;;;;;3.15;1.48;;;25.40;41.10;;;;;;5108592;27;45314;-72
2022/07/10 11:30:43;;;;;;;3.13;1.60;;;25.50;41.40;;;;;;5107983;27;45336;-73
2022/07/10 11:33:10;;;;;;;3.05;1.60;;;25.50;41.30;;;;;;5107441;27;46595;-72
2022/07/10 11:35:37;;;;;;;4.38;1.80;;;25.50;41.20;;;;;;5107018;27;45311;-72
2022/07/10 11:38:03;;;;;;;1.63;1.40;;;25.50;40.90;;;;;;5107075;27;45324;-73
2022/07/10 11:40:30;;;;;;;1.67;1.50;;;25.50;41.30;;;;;;5104584;27;45287;-74
2022/07/10 11:43:00;;;;;;;1.95;1.30;;;25.60;41.20;;;;;;5105432;27;46503;-73
2022/07/10 11:45:28;;;;;;;2.78;1.67;;;25.70;41.00;;;;;;5107633;27;45342;-74
2022/07/10 11:47:55;;;;;;;1.80;1.60;;;25.70;40.30;;;;;;5104886;27;45363;-67
2022/07/10 11:50:22;;;;;;;1.63;1.50;;;25.70;40.10;;;;;;5101554;27;45475;-71
2022/07/10 11:52:49;;;;;;;2.83;1.73;;;25.70;39.60;;;;;;5085285;28;46388;-68
2022/07/10 11:55:17;;;;;;;4.20;1.60;;;25.80;39.40;;;;;;5104012;27;45339;-70
2022/07/10 11:57:48;;;;;;;2.25;1.40;;;25.80;39.20;;;;;;5106965;27;45252;-68
2022/07/10 12:00:24;;;;;;;2.40;1.30;;;25.80;39.20;;;;;;5108621;27;45241;-69
2022/07/10 12:02:51;;;;;;;3.15;1.40;;;25.90;38.40;;;;;;5106878;27;46664;-69
2022/07/10 12:05:33;;;;;;;3.20;1.50;;;25.90;37.00;;;;;;5105668;27;45327;-70
2022/07/10 12:08:00;;;;;;;2.55;1.30;;;25.90;36.20;;;;;;5103698;27;45245;-70
2022/07/10 12:10:27;;;;;;;1.52;1.13;;;25.90;36.40;;;;;;5105548;27;45321;-70
2022/07/10 12:12:54;;;;;;;2.67;1.30;;;26.00;36.80;;;;;;5105892;27;45294;-70
2022/07/10 12:15:37;;;;;;;2.40;1.10;;;26.10;36.60;;;;;;5106166;27;45277;-70
2022/07/10 12:18:04;;;;;;;1.10;1.00;;;26.10;35.90;;;;;;5108521;27;45229;-70
2022/07/10 12:20:31;;;;;;;2.67;1.13;;;26.10;34.90;;;;;;5109744;27;45191;-69
2022/07/10 12:22:58;;;;;;;3.72;1.30;;;26.20;35.50;;;;;;5109905;27;47568;-69
2022/07/10 12:25:25;;;;;;;4.00;0.88;;;26.20;35.20;;;;;;5109202;27;45221;-70
2022/07/10 12:27:56;;;;;;;1.73;0.95;;;26.30;35.10;;;;;;5110026;27;45278;-69
2022/07/10 12:30:23;;;;;;;2.92;1.08;;;26.30;34.60;;;;;;5109442;27;45203;-69
2022/07/10 12:32:51;;;;;;;1.77;1.20;;;26.30;34.60;;;;;;5109052;27;46401;-69
2022/07/10 12:35:20;;;;;;;4.00;1.20;;;26.30;35.20;;;;;;5108872;27;45369;-70
2022/07/10 12:37:49;;;;;;;2.95;1.10;;;26.30;35.60;;;;;;5109046;27;45177;-69
2022/07/10 12:40:31;;;;;;;1.50;1.00;;;26.40;35.70;;;;;;5109504;27;45466;-69
2022/07/10 12:43:05;;;;;;;1.40;1.08;;;26.50;35.40;;;;;;5108826;27;46349;-69
2022/07/10 12:45:32;;;;;;;2.25;1.20;;;26.60;34.70;;;;;;5108902;27;45247;-69
2022/07/10 12:48:04;;;;;;;2.00;1.08;;;26.60;34.90;;;;;;5109097;27;45265;-69
2022/07/10 12:50:30;;;;;;;3.80;1.20;;;26.60;34.80;;;;;;5109192;27;45462;-69
2022/07/10 12:53:11;;;;;;;1.42;1.00;;;26.60;34.50;;;;;;5108672;27;48376;-69
2022/07/10 12:55:38;;;;;;;3.45;1.10;;;26.60;34.20;;;;;;5110797;27;45327;-69
2022/07/10 12:58:11;;;;;;;3.00;1.50;;;26.60;34.40;;;;;;5110232;27;45323;-69